createdAt,value
2019-01-29T00:01:24.684Z,5.97
2019-01-29T00:04:01.037Z,4.53
2019-01-29T00:06:37.293Z,4.13
2019-01-29T00:09:14.116Z,4.73
2019-01-29T00:11:51.100Z,4.27
2019-01-29T00:14:27.596Z,5.03
2019-01-29T00:17:03.897Z,7.73
2019-01-29T00:19:40.260Z,4.23
2019-01-29T00:22:17.598Z,7.60
2019-01-29T00:24:54.482Z,4.77
2019-01-29T00:27:31.088Z,4.13
2019-01-29T00:30:07.093Z,5.40
2019-01-29T00:32:44.257Z,4.67
2019-01-29T00:35:20.946Z,5.23
2019-01-29T00:37:56.936Z,5.00
2019-01-29T00:40:33.536Z,4.93
2019-01-29T00:43:10.925Z,9.33
2019-01-29T00:45:47.530Z,5.23
2019-01-29T00:48:24.117Z,3.80
2019-01-29T00:51:01.310Z,4.00
2019-01-29T00:53:37.452Z,4.17
2019-01-29T00:56:14.013Z,4.80
2019-01-29T00:58:51.160Z,3.47
2019-01-29T01:01:27.776Z,2.87
2019-01-29T01:04:04.223Z,4.47
2019-01-29T01:06:40.004Z,5.53
2019-01-29T01:09:16.493Z,4.37
2019-01-29T01:11:53.341Z,7.93
2019-01-29T01:14:30.288Z,4.10
2019-01-29T01:17:06.600Z,3.47
2019-01-29T01:19:42.827Z,3.73
2019-01-29T01:22:19.112Z,3.07
2019-01-29T01:24:55.535Z,3.47
2019-01-29T01:27:31.744Z,3.77
2019-01-29T01:30:09.962Z,4.30
2019-01-29T01:32:46.479Z,2.60
2019-01-29T01:35:22.909Z,5.60
2019-01-29T01:37:59.704Z,4.73
2019-01-29T01:40:36.652Z,4.37
2019-01-29T01:43:13.672Z,5.50
2019-01-29T01:45:49.922Z,3.07
2019-01-29T01:48:25.834Z,3.07
2019-01-29T01:51:02.108Z,5.43
2019-01-29T01:53:38.597Z,2.53
2019-01-29T01:56:14.837Z,3.70
2019-01-29T01:58:51.861Z,3.37
2019-01-29T02:01:28.138Z,4.90
2019-01-29T02:04:05.116Z,3.73
2019-01-29T02:06:40.836Z,2.63
2019-01-29T02:09:17.010Z,2.87
2019-01-29T02:11:54.064Z,2.87
2019-01-29T02:14:30.746Z,3.37
2019-01-29T02:17:07.429Z,3.27
2019-01-29T02:19:43.473Z,4.67
2019-01-29T02:22:19.828Z,3.27
2019-01-29T02:24:56.212Z,4.67
2019-01-29T02:27:32.462Z,5.20
2019-01-29T02:30:12.038Z,4.57
2019-01-29T02:32:48.975Z,5.57
2019-01-29T02:35:25.696Z,4.00
2019-01-29T02:38:02.419Z,4.90
2019-01-29T02:40:39.018Z,2.30
2019-01-29T02:43:16.691Z,6.27
2019-01-29T02:45:53.634Z,2.80
2019-01-29T02:48:30.931Z,6.50
2019-01-29T02:51:07.589Z,5.47
2019-01-29T02:53:43.708Z,5.03
2019-01-29T02:56:20.162Z,2.23
2019-01-29T02:58:57.039Z,2.37
2019-01-29T03:01:33.223Z,3.17
2019-01-29T03:04:10.600Z,3.83
2019-01-29T03:06:47.008Z,3.70
2019-01-29T03:09:24.388Z,2.57
2019-01-29T03:12:00.892Z,3.03
2019-01-29T03:14:37.291Z,4.47
2019-01-29T03:17:13.857Z,1.57
2019-01-29T03:19:50.240Z,3.17
2019-01-29T03:22:27.024Z,3.33
2019-01-29T03:25:02.909Z,2.10
2019-01-29T03:27:39.745Z,2.13
2019-01-29T03:30:17.316Z,4.07
2019-01-29T03:32:53.897Z,3.37
2019-01-29T03:35:29.932Z,2.83
2019-01-29T03:38:06.317Z,4.23
2019-01-29T03:40:42.853Z,3.90
2019-01-29T03:43:19.382Z,4.40
2019-01-29T03:45:55.922Z,4.47
2019-01-29T03:48:32.506Z,2.60
2019-01-29T03:51:08.786Z,3.70
2019-01-29T03:53:45.775Z,4.30
2019-01-29T03:56:21.628Z,7.03
2019-01-29T03:58:58.376Z,3.83
2019-01-29T04:01:35.303Z,4.17
2019-01-29T04:04:11.402Z,3.87
2019-01-29T04:06:47.558Z,4.93
2019-01-29T04:09:24.864Z,5.40
2019-01-29T04:12:01.872Z,2.93
2019-01-29T04:14:37.984Z,3.93
2019-01-29T04:17:14.590Z,4.60
2019-01-29T04:19:50.964Z,3.17
2019-01-29T04:22:27.351Z,3.43
2019-01-29T04:25:04.193Z,2.50
2019-01-29T04:27:41.277Z,3.73
2019-01-29T04:30:19.917Z,4.43
2019-01-29T04:32:56.650Z,5.53
2019-01-29T04:35:32.681Z,3.40
2019-01-29T04:38:09.213Z,3.80
2019-01-29T04:40:45.659Z,5.23
2019-01-29T04:43:22.500Z,4.53
2019-01-29T04:45:59.038Z,5.10
2019-01-29T04:48:35.734Z,3.27
2019-01-29T04:51:11.773Z,3.83
2019-01-29T04:53:56.920Z,4.33
2019-01-29T04:56:26.165Z,3.93
2019-01-29T04:59:02.084Z,4.77
2019-01-29T05:01:38.135Z,4.47
2019-01-29T05:04:14.378Z,5.13
2019-01-29T05:06:50.308Z,5.43
2019-01-29T05:09:26.440Z,4.17
2019-01-29T05:12:02.501Z,3.57
2019-01-29T05:14:38.786Z,3.17
2019-01-29T05:17:14.882Z,6.53
2019-01-29T05:19:51.650Z,4.27
2019-01-29T05:22:27.808Z,4.57
2019-01-29T05:25:04.487Z,3.63
2019-01-29T05:27:40.602Z,7.10
2019-01-29T05:30:20.752Z,4.40
2019-01-29T05:32:57.083Z,4.17
2019-01-29T05:35:33.487Z,5.03
2019-01-29T05:38:10.335Z,5.43
2019-01-29T05:40:47.116Z,7.10
2019-01-29T05:43:24.079Z,3.40
2019-01-29T05:46:01.096Z,4.17
2019-01-29T05:48:38.341Z,3.97
2019-01-29T05:51:14.960Z,2.73
2019-01-29T05:53:51.579Z,5.67
2019-01-29T05:56:28.992Z,6.90
2019-01-29T05:59:06.096Z,3.80
2019-01-29T06:01:43.153Z,8.30
2019-01-29T06:04:19.007Z,3.27
2019-01-29T06:06:56.088Z,5.10
2019-01-29T06:09:33.560Z,3.70
2019-01-29T06:12:10.249Z,5.40
2019-01-29T06:14:46.096Z,4.67
2019-01-29T06:17:27.303Z,5.10
2019-01-29T06:20:00.028Z,5.87
2019-01-29T06:22:36.682Z,3.73
2019-01-29T06:25:13.105Z,3.37
2019-01-29T06:27:49.571Z,3.60
2019-01-29T06:30:26.996Z,7.13
2019-01-29T06:33:02.712Z,5.73
2019-01-29T06:35:38.404Z,17.60
2019-01-29T06:38:15.068Z,13.73
2019-01-29T06:40:52.204Z,13.90
2019-01-29T06:43:29.106Z,17.77
2019-01-29T06:46:05.645Z,10.13
2019-01-29T06:48:42.069Z,7.10
2019-01-29T06:51:18.201Z,6.47
2019-01-29T06:53:54.876Z,7.53
2019-01-29T06:56:31.384Z,5.70
2019-01-29T06:59:07.589Z,7.90
2019-01-29T07:01:43.864Z,5.37
2019-01-29T07:04:20.765Z,6.10
2019-01-29T07:06:56.710Z,4.67
2019-01-29T07:09:33.135Z,4.47
2019-01-29T07:12:09.580Z,4.23
2019-01-29T07:14:45.969Z,2.77
2019-01-29T07:17:30.533Z,6.63
2019-01-29T07:20:09.970Z,6.53
2019-01-29T07:22:47.088Z,4.13
2019-01-29T07:25:23.188Z,6.40
2019-01-29T07:27:59.419Z,4.30
2019-01-29T07:30:35.617Z,4.57
2019-01-29T07:33:11.781Z,4.20
2019-01-29T07:35:48.086Z,3.73
2019-01-29T07:38:24.573Z,11.07
2019-01-29T07:41:00.711Z,11.50
2019-01-29T07:43:37.605Z,10.20
2019-01-29T07:46:14.518Z,13.03
2019-01-29T07:48:50.858Z,15.23
2019-01-29T07:51:27.455Z,12.73
2019-01-29T07:54:03.760Z,8.23
2019-01-29T07:56:39.710Z,6.43
2019-01-29T07:59:16.633Z,9.00
2019-01-29T08:01:53.169Z,10.30
2019-01-29T08:04:29.560Z,8.67
2019-01-29T08:07:05.472Z,8.23
2019-01-29T08:09:41.287Z,11.03
2019-01-29T08:12:17.958Z,14.57
2019-01-29T08:14:54.060Z,10.25
2019-01-29T08:17:30.128Z,8.85
2019-01-29T08:20:07.503Z,13.00
2019-01-29T08:22:44.213Z,16.02
2019-01-29T08:25:20.179Z,18.57
2019-01-29T08:27:57.165Z,11.05
2019-01-29T08:30:34.168Z,12.13
2019-01-29T08:33:11.145Z,9.33
2019-01-29T08:35:47.285Z,10.90
2019-01-29T08:38:23.196Z,8.17
2019-01-29T08:40:59.431Z,11.10
2019-01-29T08:43:35.828Z,23.10
2019-01-29T08:46:12.726Z,15.77
2019-01-29T08:48:48.874Z,22.00
2019-01-29T08:51:26.885Z,26.48
2019-01-29T08:54:03.929Z,12.70
2019-01-29T08:56:40.859Z,15.00
2019-01-29T08:59:17.055Z,20.70
2019-01-29T09:01:53.497Z,15.08
2019-01-29T09:04:30.804Z,16.95
2019-01-29T09:07:06.491Z,13.10
2019-01-29T09:09:42.497Z,9.53
2019-01-29T09:12:18.310Z,16.37
2019-01-29T09:14:54.860Z,13.23
2019-01-29T09:17:31.688Z,14.40
2019-01-29T09:20:09.028Z,14.75
2019-01-29T09:22:45.059Z,11.75
2019-01-29T09:25:22.683Z,19.12
2019-01-29T09:27:59.217Z,13.35
2019-01-29T09:30:35.722Z,11.10
2019-01-29T09:33:12.030Z,11.73
2019-01-29T09:35:48.265Z,12.65
2019-01-29T09:38:24.748Z,10.38
2019-01-29T09:41:00.900Z,12.93
2019-01-29T09:43:37.520Z,5.97
2019-01-29T09:46:14.086Z,12.20
2019-01-29T09:48:50.504Z,6.35
2019-01-29T09:51:27.072Z,7.45
2019-01-29T09:54:03.156Z,11.20
2019-01-29T09:56:39.122Z,15.38
2019-01-29T09:59:15.116Z,14.85
2019-01-29T10:01:51.657Z,4.03
2019-01-29T10:04:28.237Z,9.33
2019-01-29T10:07:05.084Z,5.53
2019-01-29T10:09:41.500Z,8.10
2019-01-29T10:12:17.855Z,6.62
2019-01-29T10:14:54.454Z,4.47
2019-01-29T10:17:31.781Z,7.53
2019-01-29T10:20:08.327Z,9.78
2019-01-29T10:22:44.736Z,5.12
2019-01-29T10:25:20.976Z,6.05
2019-01-29T10:27:57.144Z,9.38
2019-01-29T10:30:33.016Z,4.08
2019-01-29T10:33:09.790Z,7.92
2019-01-29T10:35:45.777Z,7.50
2019-01-29T10:38:22.097Z,6.55
2019-01-29T10:40:58.110Z,5.83
2019-01-29T10:43:34.792Z,6.05
2019-01-29T10:46:11.354Z,5.28
2019-01-29T10:48:47.809Z,5.67
2019-01-29T10:51:23.547Z,4.25
2019-01-29T10:54:00.040Z,4.62
2019-01-29T10:56:36.767Z,5.20
2019-01-29T10:59:13.436Z,3.65
2019-01-29T11:01:50.226Z,6.03
2019-01-29T11:04:27.501Z,4.67
2019-01-29T11:07:03.352Z,4.65
2019-01-29T11:09:39.820Z,3.87
2019-01-29T11:12:16.616Z,6.03
2019-01-29T11:14:52.874Z,5.50
2019-01-29T11:17:30.480Z,7.25
2019-01-29T11:20:09.309Z,3.92
2019-01-29T11:22:45.768Z,3.63
2019-01-29T11:25:23.816Z,4.15
2019-01-29T11:28:00.229Z,4.83
2019-01-29T11:30:36.318Z,6.85
2019-01-29T11:33:12.713Z,5.97
2019-01-29T11:35:49.297Z,6.75
2019-01-29T11:38:26.399Z,2.58
2019-01-29T11:41:02.797Z,7.75
2019-01-29T11:43:39.151Z,4.78
2019-01-29T11:46:15.389Z,3.58
2019-01-29T11:48:51.939Z,3.55
2019-01-29T11:51:27.651Z,2.62
2019-01-29T11:54:04.678Z,6.55
2019-01-29T11:56:41.182Z,2.92
2019-01-29T11:59:17.182Z,4.10
2019-01-29T12:01:53.593Z,4.03
2019-01-29T12:04:29.716Z,3.65
2019-01-29T12:07:05.868Z,4.95
2019-01-29T12:09:42.094Z,4.45
2019-01-29T12:12:18.277Z,2.95
2019-01-29T12:14:54.367Z,5.42
2019-01-29T12:17:37.388Z,2.85
2019-01-29T12:20:14.776Z,7.37
2019-01-29T12:22:51.361Z,15.85
2019-01-29T12:25:28.288Z,4.12
2019-01-29T12:28:04.546Z,4.17
2019-01-29T12:30:41.452Z,4.17
2019-01-29T12:33:17.619Z,6.22
2019-01-29T12:35:53.444Z,2.83
2019-01-29T12:38:30.320Z,4.75
2019-01-29T12:41:06.825Z,2.77
2019-01-29T12:43:43.047Z,3.25
2019-01-29T12:46:19.557Z,3.42
2019-01-29T12:48:56.480Z,4.62
2019-01-29T12:51:55.284Z,4.20
2019-01-29T12:54:31.308Z,4.72
2019-01-29T12:57:07.806Z,4.20
2019-01-29T12:59:44.585Z,3.50
2019-01-29T13:02:22.009Z,3.22
2019-01-29T13:04:58.244Z,5.08
2019-01-29T13:07:34.365Z,9.73
2019-01-29T13:10:14.936Z,7.92
2019-01-29T13:12:51.077Z,2.53
2019-01-29T13:15:28.798Z,5.37
2019-01-29T13:18:05.297Z,2.98
2019-01-29T13:20:41.141Z,2.42
2019-01-29T13:23:17.945Z,2.75
2019-01-29T13:25:54.845Z,3.00
2019-01-29T13:28:31.191Z,3.75
2019-01-29T13:31:07.158Z,3.70
2019-01-29T13:33:44.419Z,2.50
2019-01-29T13:36:21.201Z,2.95
2019-01-29T13:38:57.838Z,2.47
2019-01-29T13:41:34.701Z,2.42
2019-01-29T13:44:10.799Z,3.40
2019-01-29T13:46:47.960Z,3.27
2019-01-29T13:49:25.359Z,2.17
2019-01-29T13:52:02.025Z,2.17
2019-01-29T13:54:38.958Z,4.03
2019-01-29T13:57:15.524Z,3.12
2019-01-29T13:59:51.661Z,2.75
2019-01-29T14:02:27.589Z,3.30
2019-01-29T14:05:04.073Z,3.58
2019-01-29T14:07:40.276Z,2.52
2019-01-29T14:10:17.836Z,2.05
2019-01-29T14:12:54.649Z,3.22
2019-01-29T14:15:36.847Z,3.45
2019-01-29T14:18:14.329Z,2.87
2019-01-29T14:20:51.390Z,4.22
2019-01-29T14:23:28.190Z,3.00
2019-01-29T14:26:04.816Z,4.30
2019-01-29T14:28:40.775Z,2.72
2019-01-29T14:31:17.774Z,2.00
2019-01-29T14:33:53.886Z,5.25
2019-01-29T14:36:30.165Z,3.83
2019-01-29T14:39:24.974Z,2.70
2019-01-29T14:42:01.671Z,5.33
2019-01-29T14:44:44.404Z,2.90
2019-01-29T14:47:20.873Z,3.58
2019-01-29T14:49:57.392Z,5.70
2019-01-29T14:52:37.101Z,3.05
2019-01-29T14:55:13.624Z,2.90
2019-01-29T14:57:49.740Z,3.62
2019-01-29T15:00:27.263Z,4.20
2019-01-29T15:03:04.302Z,3.22
2019-01-29T15:05:41.433Z,3.77
2019-01-29T15:08:17.280Z,3.77
2019-01-29T15:10:53.444Z,1.75
2019-01-29T15:13:29.782Z,3.80
2019-01-29T15:16:25.688Z,2.80
2019-01-29T15:19:06.847Z,3.35
2019-01-29T15:21:42.676Z,4.00
2019-01-29T15:24:19.568Z,3.10
2019-01-29T15:26:56.218Z,1.87
2019-01-29T15:29:32.645Z,3.35
2019-01-29T15:32:08.979Z,1.95
2019-01-29T15:34:46.248Z,2.98
2019-01-29T15:37:22.780Z,2.67
2019-01-29T15:39:59.712Z,3.40
2019-01-29T15:42:35.754Z,1.65
2019-01-29T15:45:15.387Z,3.52
2019-01-29T15:47:51.771Z,2.42
2019-01-29T15:50:28.660Z,1.87
2019-01-29T15:53:06.324Z,2.53
2019-01-29T15:55:43.327Z,1.67
2019-01-29T15:58:19.200Z,2.27
2019-01-29T16:00:56.329Z,2.27
2019-01-29T16:03:32.544Z,2.95
2019-01-29T16:06:08.924Z,4.33
2019-01-29T16:08:45.068Z,2.50
2019-01-29T16:11:21.056Z,2.33
2019-01-29T16:13:57.489Z,1.95
2019-01-29T16:16:34.656Z,1.98
2019-01-29T16:19:10.517Z,1.57
2019-01-29T16:21:46.982Z,1.85
2019-01-29T16:24:23.746Z,2.42
2019-01-29T16:27:06.616Z,2.47
2019-01-29T16:29:39.322Z,2.77
2019-01-29T16:32:16.497Z,2.95
2019-01-29T16:34:53.114Z,2.42
2019-01-29T16:37:28.837Z,3.15
2019-01-29T16:40:07.757Z,1.05
2019-01-29T16:42:44.677Z,2.15
2019-01-29T16:45:24.360Z,1.20
2019-01-29T16:48:01.767Z,3.87
2019-01-29T16:50:38.161Z,3.60
2019-01-29T16:53:14.498Z,1.37
2019-01-29T16:55:51.328Z,2.30
2019-01-29T16:58:28.196Z,6.28
2019-01-29T17:01:06.690Z,2.75
2019-01-29T17:03:43.020Z,2.05
2019-01-29T17:06:19.056Z,2.92
2019-01-29T17:08:55.745Z,4.62
2019-01-29T17:11:32.264Z,4.25
2019-01-29T17:14:07.990Z,5.28
2019-01-29T17:16:44.034Z,2.98
2019-01-29T17:19:20.457Z,3.47
2019-01-29T17:21:56.706Z,5.45
2019-01-29T17:24:33.452Z,2.92
2019-01-29T17:27:09.845Z,2.87
2019-01-29T17:29:46.176Z,3.52
2019-01-29T17:32:30.075Z,4.12
2019-01-29T17:34:59.619Z,4.25
2019-01-29T17:37:35.275Z,6.70
2019-01-29T17:40:13.344Z,3.17
2019-01-29T17:42:49.353Z,3.20
2019-01-29T17:45:28.343Z,1.85
2019-01-29T17:48:04.601Z,3.45
2019-01-29T17:50:42.177Z,2.37
2019-01-29T17:53:17.919Z,2.90
2019-01-29T17:55:56.108Z,2.72
2019-01-29T17:58:32.072Z,3.62
2019-01-29T18:01:09.248Z,2.75
2019-01-29T18:03:44.985Z,2.52
2019-01-29T18:06:21.161Z,2.65
2019-01-29T18:08:57.742Z,2.55
2019-01-29T18:11:34.340Z,1.77
2019-01-29T18:14:11.095Z,4.08
2019-01-29T18:16:47.493Z,2.20
2019-01-29T18:19:23.528Z,1.32
2019-01-29T18:22:00.277Z,2.60
2019-01-29T18:24:37.153Z,2.47
2019-01-29T18:27:13.860Z,2.58
2019-01-29T18:29:50.589Z,4.62
2019-01-29T18:32:26.621Z,1.50
2019-01-29T18:35:02.593Z,2.83
2019-01-29T18:37:39.689Z,1.55
2019-01-29T18:40:19.128Z,2.40
2019-01-29T18:42:56.436Z,2.10
2019-01-29T18:45:33.006Z,3.02
2019-01-29T18:48:09.351Z,2.47
2019-01-29T18:50:45.636Z,0.98
2019-01-29T18:53:22.343Z,3.08
2019-01-29T18:55:58.912Z,2.87
2019-01-29T18:58:34.853Z,2.08
2019-01-29T19:01:11.340Z,1.60
2019-01-29T19:03:49.896Z,2.15
2019-01-29T19:06:26.262Z,3.87
2019-01-29T19:09:03.147Z,1.80
2019-01-29T19:11:39.234Z,2.70
2019-01-29T19:14:16.000Z,2.58
2019-01-29T19:16:51.956Z,1.75
2019-01-29T19:19:28.282Z,1.70
2019-01-29T19:22:04.576Z,1.85
2019-01-29T19:24:40.936Z,4.05
2019-01-29T19:27:17.064Z,2.08
2019-01-29T19:29:53.531Z,2.70
2019-01-29T19:32:29.901Z,3.25
2019-01-29T19:35:07.361Z,1.57
2019-01-29T19:37:44.137Z,1.92
2019-01-29T19:40:21.095Z,3.45
2019-01-29T19:42:57.052Z,1.85
2019-01-29T19:45:34.118Z,1.90
2019-01-29T19:48:10.532Z,2.77
2019-01-29T19:50:49.438Z,2.05
2019-01-29T19:53:25.884Z,2.08
2019-01-29T19:56:03.624Z,3.50
2019-01-29T19:58:39.858Z,1.98
2019-01-29T20:01:16.655Z,2.40
2019-01-29T20:03:53.523Z,1.98
2019-01-29T20:06:31.006Z,2.37
2019-01-29T20:09:11.197Z,1.83
2019-01-29T20:11:47.993Z,2.52
2019-01-29T20:14:24.274Z,2.08
2019-01-29T20:17:00.769Z,1.52
2019-01-29T20:19:36.720Z,1.93
2019-01-29T20:22:13.000Z,1.70
2019-01-29T20:24:48.868Z,1.93
2019-01-29T20:27:24.889Z,1.70
2019-01-29T20:30:00.853Z,2.17
2019-01-29T20:32:36.886Z,1.42
2019-01-29T20:35:13.744Z,2.77
2019-01-29T20:37:50.509Z,2.08
2019-01-29T20:40:27.951Z,2.50
2019-01-29T20:43:04.260Z,2.25
2019-01-29T20:45:40.782Z,2.40
2019-01-29T20:48:17.315Z,1.67
2019-01-29T20:50:53.528Z,1.47
2019-01-29T20:53:29.708Z,2.00
2019-01-29T20:56:06.268Z,1.90
2019-01-29T20:58:52.273Z,2.25
2019-01-29T21:01:20.633Z,2.00
2019-01-29T21:03:56.652Z,1.95
2019-01-29T21:06:32.862Z,1.67
2019-01-29T21:09:10.162Z,2.37
2019-01-29T21:11:46.911Z,1.87
2019-01-29T21:14:23.192Z,2.00
2019-01-29T21:17:00.220Z,1.52
2019-01-29T21:19:36.544Z,2.07
2019-01-29T21:22:14.343Z,3.20
2019-01-29T21:24:51.457Z,2.27
2019-01-29T21:27:27.900Z,2.47
2019-01-29T21:30:04.716Z,1.52
2019-01-29T21:32:41.352Z,2.10
2019-01-29T21:35:17.910Z,2.12
2019-01-29T21:37:54.779Z,2.27
2019-01-29T21:40:31.696Z,1.92
2019-01-29T21:43:08.223Z,2.10
2019-01-29T21:45:45.111Z,1.52
2019-01-29T21:48:21.292Z,2.00
2019-01-29T21:50:57.681Z,2.17
2019-01-29T21:53:33.806Z,1.85
2019-01-29T21:56:10.252Z,1.77
2019-01-29T21:58:46.510Z,1.30
2019-01-29T22:01:22.338Z,2.00
2019-01-29T22:03:58.851Z,2.05
2019-01-29T22:06:35.605Z,2.62
2019-01-29T22:09:12.794Z,2.65
2019-01-29T22:11:49.685Z,1.90
2019-01-29T22:14:26.491Z,2.62
2019-01-29T22:17:03.125Z,1.95
2019-01-29T22:19:39.044Z,1.57
2019-01-29T22:22:15.977Z,1.42
2019-01-29T22:24:52.337Z,2.98
2019-01-29T22:27:29.249Z,1.35
2019-01-29T22:30:08.421Z,2.67
2019-01-29T22:32:45.981Z,2.20
2019-01-29T22:35:22.051Z,2.08
2019-01-29T22:37:59.106Z,2.35
2019-01-29T22:40:36.039Z,2.37
2019-01-29T22:43:12.848Z,1.37
2019-01-29T22:45:49.397Z,3.83
2019-01-29T22:48:26.832Z,2.42
2019-01-29T22:51:02.785Z,1.82
2019-01-29T22:53:38.636Z,2.42
2019-01-29T22:56:15.178Z,1.22
2019-01-29T22:58:52.419Z,1.65
2019-01-29T23:01:35.989Z,2.27
2019-01-29T23:04:34.529Z,2.60
2019-01-29T23:07:16.933Z,1.98
2019-01-29T23:09:53.944Z,2.42
2019-01-29T23:12:29.919Z,6.85
2019-01-29T23:15:07.712Z,10.65
2019-01-29T23:17:44.320Z,8.65
2019-01-29T23:20:21.240Z,9.43
2019-01-29T23:22:57.034Z,9.78
2019-01-29T23:25:33.255Z,10.25
2019-01-29T23:28:09.092Z,10.63
2019-01-29T23:30:46.237Z,7.63
2019-01-29T23:33:21.922Z,6.17
2019-01-29T23:35:59.067Z,10.00
2019-01-29T23:38:36.231Z,6.97
2019-01-29T23:41:12.765Z,8.40
2019-01-29T23:43:48.971Z,8.23
2019-01-29T23:46:25.345Z,7.17
2019-01-29T23:49:01.796Z,7.30
2019-01-29T23:51:39.537Z,10.70
2019-01-29T23:54:15.899Z,7.57
2019-01-29T23:56:52.788Z,10.90
2019-01-29T23:59:29.438Z,8.77
